Time;durP1;ratioP1;P1;durP2;ratioP2;P2;SDS_P1;SDS_P2;PMS_P1;PMS_P2;Temp;Humidity;BMP_temperature;BMP_pressure;BME280_temperature;BME280_humidity;BME280_pressure;Samples;Min_cycle;Max_cycle;Signal;HPM_P1;HPM_P2
2022/05/08 00:00:05;;;;;;;5.40;5.00;;;17.40;42.80;;;;;;10358334;28;20226;-74
2022/05/08 00:05:12;;;;;;;6.30;5.80;;;17.30;42.70;;;;;;10361801;28;20222;-73
2022/05/08 00:10:15;;;;;;;4.60;4.30;;;17.30;42.90;;;;;;10360072;28;20260;-74
2022/05/08 00:15:18;;;;;;;5.77;5.37;;;17.30;42.70;;;;;;10363295;28;20233;-74
2022/05/08 00:20:23;;;;;;;6.43;5.93;;;17.20;42.70;;;;;;10363411;28;20255;-73
2022/05/08 00:25:27;;;;;;;5.57;5.17;;;17.20;43.00;;;;;;10362807;28;20239;-73
2022/05/08 00:30:30;;;;;;;6.70;6.20;;;17.20;42.90;;;;;;10363680;28;20238;-73
2022/05/08 00:35:35;;;;;;;6.67;6.17;;;17.20;42.90;;;;;;10363132;28;20313;-74
2022/05/08 00:40:38;;;;;;;6.23;5.73;;;17.10;42.90;;;;;;10362296;28;20384;-74
2022/05/08 00:45:41;;;;;;;5.30;5.00;;;17.10;42.80;;;;;;10360636;28;20245;-73
2022/05/08 00:50:46;;;;;;;5.47;5.07;;;17.10;42.80;;;;;;10360227;28;20227;-73
2022/05/08 00:55:50;;;;;;;5.37;4.97;;;17.10;42.90;;;;;;10361173;28;20745;-74
2022/05/08 01:00:54;;;;;;;6.10;5.60;;;17.00;42.70;;;;;;10363263;28;20257;-74
2022/05/08 01:06:00;;;;;;;5.33;4.97;;;17.00;42.70;;;;;;10361063;28;20308;-73
2022/05/08 01:11:05;;;;;;;5.17;4.87;;;16.90;42.80;;;;;;10362829;28;20230;-74
2022/05/08 01:16:09;;;;;;;5.40;5.00;;;16.90;42.70;;;;;;10356881;28;20234;-74
2022/05/08 01:21:23;;;;;;;7.10;6.50;;;16.90;42.80;;;;;;10362835;28;20249;-74
2022/05/08 01:26:27;;;;;;;8.03;7.40;;;16.90;43.00;;;;;;10358566;28;20313;-74
2022/05/08 01:31:31;;;;;;;5.90;5.50;;;16.80;42.70;;;;;;10361377;28;20959;-74
2022/05/08 01:36:35;;;;;;;5.47;5.07;;;16.80;42.70;;;;;;10358747;28;20312;-74
2022/05/08 01:41:39;;;;;;;5.60;5.20;;;16.70;42.60;;;;;;10361514;28;20227;-73
2022/05/08 01:46:42;;;;;;;5.60;5.20;;;16.70;42.80;;;;;;10360896;28;20588;-73
2022/05/08 01:51:45;;;;;;;5.47;5.10;;;16.70;42.80;;;;;;10357872;28;20225;-73
2022/05/08 01:56:50;;;;;;;7.20;6.67;;;16.70;42.90;;;;;;10356123;28;20222;-74
2022/05/08 02:01:53;;;;;;;6.83;6.33;;;16.60;42.90;;;;;;10361280;28;20244;-73
2022/05/08 02:06:56;;;;;;;6.77;6.27;;;16.60;42.80;;;;;;10361133;28;20226;-74
2022/05/08 02:12:02;;;;;;;6.97;6.47;;;16.60;42.90;;;;;;10357504;28;20218;-74
2022/05/08 02:17:05;;;;;;;6.13;5.63;;;16.60;43.10;;;;;;10358421;28;20675;-74
2022/05/08 02:22:08;;;;;;;7.00;6.50;;;16.50;42.90;;;;;;10356642;28;20226;-74
2022/05/08 02:27:13;;;;;;;10.23;9.40;;;16.50;42.80;;;;;;10359340;28;20242;-74
2022/05/08 02:32:16;;;;;;;8.90;7.77;;;16.50;43.10;;;;;;10359018;28;20230;-74
2022/05/08 02:37:19;;;;;;;8.73;8.03;;;16.50;42.90;;;;;;10357139;28;20604;-74
2022/05/08 02:42:24;;;;;;;10.97;9.97;;;16.40;42.90;;;;;;10356543;28;20244;-73
2022/05/08 02:47:27;;;;;;;12.23;11.03;;;16.40;43.10;;;;;;10359236;28;20226;-74
2022/05/08 02:52:30;;;;;;;9.80;9.00;;;16.30;42.90;;;;;;10360397;28;20241;-73
2022/05/08 03:02:57;;;;;;;10.10;9.20;;;16.30;43.60;;;;;;10358589;28;20248;-74
2022/05/08 03:08:00;;;;;;;9.83;8.87;;;16.20;43.20;;;;;;10357046;28;20226;-73
2022/05/08 03:13:05;;;;;;;8.30;7.70;;;16.20;43.40;;;;;;10355981;28;20241;-74
2022/05/08 03:18:08;;;;;;;8.53;7.83;;;16.20;43.70;;;;;;10358765;28;20570;-74
2022/05/08 03:23:12;;;;;;;7.63;7.03;;;16.20;43.60;;;;;;10360654;28;20820;-74
2022/05/08 03:28:16;;;;;;;6.97;6.47;;;16.20;43.70;;;;;;10354993;28;20241;-74
2022/05/08 03:33:20;;;;;;;7.50;6.80;;;16.20;43.90;;;;;;10350089;28;20718;-74
2022/05/08 03:38:23;;;;;;;8.23;7.63;;;16.20;43.70;;;;;;10352231;28;20234;-74
2022/05/08 03:43:28;;;;;;;8.17;7.37;;;16.20;43.70;;;;;;10355646;28;20232;-74
2022/05/08 03:48:31;;;;;;;7.90;7.30;;;16.20;43.90;;;;;;10349425;28;20613;-73
2022/05/08 03:53:34;;;;;;;11.73;8.10;;;16.10;43.60;;;;;;10354206;28;20230;-74
2022/05/08 03:58:39;;;;;;;8.27;7.67;;;16.10;43.70;;;;;;10354870;28;20226;-73
2022/05/08 04:03:42;;;;;;;7.87;7.37;;;16.10;43.90;;;;;;10355196;28;20234;-73
2022/05/08 04:08:46;;;;;;;8.00;7.50;;;16.10;43.80;;;;;;10353541;28;20234;-73
2022/05/08 04:13:50;;;;;;;9.97;9.17;;;16.00;43.80;;;;;;10355546;28;20650;-74
2022/05/08 04:18:53;;;;;;;9.53;8.77;;;16.00;44.10;;;;;;10354321;28;20226;-74
2022/05/08 04:29:18;;;;;;;8.97;8.27;;;16.00;43.70;;;;;;10355924;28;20233;-74
2022/05/08 04:34:21;;;;;;;8.10;7.50;;;16.00;44.00;;;;;;10357111;28;20598;-74
2022/05/08 04:39:25;;;;;;;7.30;6.80;;;15.90;43.70;;;;;;10354543;28;20230;-74
2022/05/08 04:44:29;;;;;;;9.10;8.50;;;15.90;43.90;;;;;;10356140;28;20230;-74
2022/05/08 04:49:32;;;;;;;8.67;7.93;;;15.90;44.40;;;;;;10365503;28;20234;-74
2022/05/08 04:54:35;;;;;;;9.43;8.57;;;15.90;44.10;;;;;;10358788;28;20234;-74
2022/05/08 04:59:40;;;;;;;9.43;8.73;;;15.90;44.20;;;;;;10365858;28;20237;-74
2022/05/08 05:04:43;;;;;;;8.97;8.37;;;15.90;44.50;;;;;;10364488;28;20281;-74
2022/05/08 05:09:46;;;;;;;9.07;8.40;;;15.90;44.10;;;;;;10362878;28;20284;-74
2022/05/08 05:14:51;;;;;;;7.90;7.40;;;15.90;44.20;;;;;;10358950;28;20260;-74
2022/05/08 05:19:54;;;;;;;8.80;8.20;;;15.90;44.60;;;;;;10364071;28;20240;-74
2022/05/08 05:24:58;;;;;;;9.13;8.43;;;15.90;44.60;;;;;;10361873;28;20237;-74
2022/05/08 05:30:03;;;;;;;9.60;8.90;;;15.90;44.70;;;;;;10361540;28;20237;-74
2022/05/08 05:35:07;;;;;;;9.00;8.40;;;15.90;45.10;;;;;;10359147;28;20253;-74
2022/05/08 05:40:11;;;;;;;9.80;9.10;;;15.90;45.00;;;;;;10360648;28;20235;-74
2022/05/08 05:45:17;;;;;;;11.17;10.30;;;15.90;45.10;;;;;;10363107;28;20230;-74
2022/05/08 05:50:21;;;;;;;13.13;12.00;;;15.90;45.10;;;;;;10364943;28;20245;-74
2022/05/08 05:55:24;;;;;;;11.97;11.00;;;16.00;45.20;;;;;;10359329;28;20242;-74
2022/05/08 06:00:28;;;;;;;12.40;11.40;;;16.00;45.30;;;;;;10360196;28;20226;-74
2022/05/08 06:05:32;;;;;;;12.33;11.33;;;16.00;45.20;;;;;;10359872;28;20234;-74
2022/05/08 06:10:35;;;;;;;13.20;12.17;;;16.10;45.30;;;;;;10358233;28;20321;-74
2022/05/08 06:15:40;;;;;;;12.83;11.73;;;16.10;45.30;;;;;;10361981;28;20234;-74
2022/05/08 06:20:43;;;;;;;12.97;11.97;;;16.20;45.40;;;;;;10355456;28;20325;-74
2022/05/08 06:25:46;;;;;;;12.57;11.47;;;16.20;45.40;;;;;;10358778;28;20236;-74
2022/05/08 06:30:51;;;;;;;13.40;12.20;;;16.30;45.50;;;;;;10362878;28;20234;-74
2022/05/08 06:35:54;;;;;;;13.13;12.17;;;16.40;45.60;;;;;;10355090;28;20314;-74
2022/05/08 06:40:57;;;;;;;12.83;11.93;;;16.40;45.60;;;;;;10361028;28;20230;-74
2022/05/08 06:46:02;;;;;;;11.80;10.90;;;16.50;45.60;;;;;;10361713;28;20245;-74
2022/05/08 06:51:05;;;;;;;14.20;13.10;;;16.60;45.70;;;;;;10365225;28;20234;-73
2022/05/08 06:56:08;;;;;;;13.47;12.37;;;16.60;45.80;;;;;;10360568;28;20226;-74
2022/05/08 07:06:34;;;;;;;12.50;11.53;;;16.80;45.90;;;;;;10353291;28;20781;-74
2022/05/08 07:11:47;;;;;;;13.27;12.23;;;16.80;45.90;;;;;;10360231;28;20732;-74
2022/05/08 07:16:52;;;;;;;12.90;11.90;;;16.80;45.90;;;;;;10354772;28;20222;-74
2022/05/08 07:21:55;;;;;;;12.77;11.80;;;16.90;46.00;;;;;;10362254;28;20308;-74
2022/05/08 07:26:58;;;;;;;13.60;12.43;;;17.00;46.10;;;;;;10363998;28;20235;-73
2022/05/08 07:32:03;;;;;;;13.67;12.60;;;17.00;46.10;;;;;;10364310;28;20226;-74
2022/05/08 07:37:07;;;;;;;13.70;12.60;;;17.10;46.20;;;;;;10355611;28;20222;-74
2022/05/08 07:42:10;;;;;;;14.83;13.63;;;17.20;46.30;;;;;;10360112;28;20687;-74
2022/05/08 07:47:15;;;;;;;14.67;13.50;;;17.20;46.30;;;;;;10357972;28;20219;-74
2022/05/08 07:52:18;;;;;;;13.50;12.20;;;17.30;46.30;;;;;;10359138;28;20640;-74
2022/05/08 07:57:21;;;;;;;13.00;12.07;;;17.40;46.50;;;;;;10352885;28;20699;-74
2022/05/08 08:02:26;;;;;;;12.87;11.87;;;17.50;46.50;;;;;;10360553;28;20319;-74
2022/05/08 08:07:29;;;;;;;13.57;12.57;;;17.60;46.60;;;;;;10359020;28;20316;-74
2022/05/08 08:12:32;;;;;;;14.53;13.33;;;17.70;46.70;;;;;;10356430;28;20400;-74
2022/05/08 08:17:38;;;;;;;13.37;12.37;;;17.80;46.80;;;;;;10356065;28;20309;-74
2022/05/08 08:22:42;;;;;;;14.07;12.97;;;18.00;47.00;;;;;;10362762;28;20273;-74
2022/05/08 08:27:45;;;;;;;14.00;12.90;;;18.10;47.10;;;;;;10365198;28;20326;-74
2022/05/08 08:32:49;;;;;;;12.33;11.40;;;18.20;47.20;;;;;;10359695;28;20222;-74
2022/05/08 08:37:52;;;;;;;12.10;11.20;;;18.30;47.20;;;;;;10363539;28;20230;-74
2022/05/08 08:42:58;;;;;;;11.80;10.90;;;18.50;46.80;;;;;;10363670;28;20242;-73
2022/05/08 08:48:06;;;;;;;11.67;10.77;;;18.60;46.50;;;;;;10363611;28;20223;-73
2022/05/08 08:53:10;;;;;;;11.07;10.27;;;18.70;46.60;;;;;;10365702;28;20706;-73
2022/05/08 08:58:13;;;;;;;10.83;10.03;;;18.80;46.10;;;;;;10363002;28;20225;-74
2022/05/08 09:03:25;;;;;;;10.77;9.87;;;18.90;45.90;;;;;;10362410;28;20237;-74
2022/05/08 09:08:30;;;;;;;10.43;9.63;;;19.10;45.50;;;;;;10359100;28;20615;-74
2022/05/08 09:13:48;;;;;;;8.60;8.00;;;19.20;45.80;;;;;;10366745;28;20242;-71
2022/05/08 09:18:53;;;;;;;8.40;7.70;;;19.30;45.40;;;;;;10346368;28;20264;-71
2022/05/08 09:24:07;;;;;;;10.53;9.67;;;19.40;45.30;;;;;;10368383;28;20257;-72
2022/05/08 09:29:21;;;;;;;9.83;9.03;;;19.50;44.50;;;;;;10364191;28;20249;-71
2022/05/08 09:34:26;;;;;;;10.53;9.73;;;19.60;44.60;;;;;;10360921;28;20249;-71
2022/05/08 09:39:30;;;;;;;10.10;9.30;;;19.80;44.90;;;;;;10360831;28;20665;-72
2022/05/08 09:44:33;;;;;;;9.60;8.90;;;19.90;44.70;;;;;;10356792;28;20694;-74
2022/05/08 09:49:38;;;;;;;10.13;9.43;;;20.00;44.60;;;;;;10350850;28;20238;-74
2022/05/08 09:54:41;;;;;;;8.80;8.10;;;20.00;44.10;;;;;;10359057;28;20237;-71
2022/05/08 09:59:44;;;;;;;8.03;7.43;;;20.10;43.80;;;;;;10360491;28;20234;-71
2022/05/08 10:04:49;;;;;;;8.37;7.77;;;20.20;43.80;;;;;;10359546;28;20245;-71
2022/05/08 10:15:34;;;;;;;7.63;7.03;;;20.30;43.20;;;;;;10358940;28;20230;-71
2022/05/08 10:21:07;;;;;;;7.27;6.77;;;20.40;42.00;;;;;;10359089;28;20809;-71
2022/05/08 10:26:15;;;;;;;8.53;7.80;;;20.40;41.80;;;;;;10364377;28;20321;-71
2022/05/08 10:31:43;;;;;;;7.47;6.87;;;20.50;41.80;;;;;;10366478;28;20242;-71
2022/05/08 10:37:26;;;;;;;6.43;6.03;;;20.50;41.80;;;;;;10358444;28;20743;-71
2022/05/08 10:42:45;;;;;;;6.13;5.67;;;20.60;41.70;;;;;;10365686;28;20234;-72
2022/05/08 10:47:49;;;;;;;6.43;5.93;;;20.70;40.90;;;;;;10366120;28;20284;-71
2022/05/08 10:52:53;;;;;;;5.90;5.50;;;20.70;41.90;;;;;;10366145;28;20239;-71
2022/05/08 10:58:00;;;;;;;7.53;5.50;;;20.80;41.50;;;;;;10361324;28;20249;-71
2022/05/08 11:03:03;;;;;;;6.20;5.80;;;20.90;41.50;;;;;;10357283;28;20238;-72
2022/05/08 11:08:10;;;;;;;6.10;5.70;;;20.90;41.60;;;;;;10357911;28;20964;-72
2022/05/08 11:13:15;;;;;;;6.03;5.60;;;20.80;41.20;;;;;;10357004;28;20230;-72
2022/05/08 11:18:23;;;;;;;6.70;6.20;;;20.80;41.80;;;;;;10361161;28;20712;-72
2022/05/08 11:23:30;;;;;;;6.50;6.00;;;20.70;41.90;;;;;;10364562;28;20360;-72
2022/05/08 11:28:35;;;;;;;5.63;5.30;;;20.70;41.30;;;;;;10364653;28;20234;-72
2022/05/08 11:39:03;;;;;;;5.90;5.40;;;20.60;41.20;;;;;;10364487;28;20751;-73
2022/05/08 11:44:23;;;;;;;5.27;4.87;;;20.50;40.60;;;;;;10364606;28;20227;-72
2022/05/08 11:49:29;;;;;;;5.70;5.30;;;20.50;40.50;;;;;;10364097;28;20234;-72
2022/05/08 11:54:35;;;;;;;5.77;5.37;;;20.50;41.00;;;;;;10368276;28;20280;-72
2022/05/08 11:59:40;;;;;;;5.50;5.10;;;20.50;40.60;;;;;;10369724;28;20226;-75
2022/05/08 12:04:53;;;;;;;5.60;5.20;;;20.50;41.30;;;;;;10367625;28;20264;-74
2022/05/08 12:09:57;;;;;;;5.57;5.20;;;20.60;40.70;;;;;;10365650;28;20593;-75
2022/05/08 12:15:03;;;;;;;5.57;5.17;;;20.70;40.90;;;;;;10360132;28;20231;-75
2022/05/08 12:20:11;;;;;;;5.73;5.33;;;20.70;40.80;;;;;;10362761;28;20218;-74
2022/05/08 12:25:17;;;;;;;5.23;4.90;;;20.80;40.60;;;;;;10358276;28;20232;-75
2022/05/08 12:30:20;;;;;;;5.00;4.60;;;20.80;40.30;;;;;;10359847;28;20699;-75
2022/05/08 12:35:23;;;;;;;5.27;4.90;;;20.90;40.80;;;;;;10356068;28;20281;-76
2022/05/08 12:40:29;;;;;;;5.67;5.20;;;20.90;40.70;;;;;;10355717;28;20607;-75
2022/05/08 12:45:37;;;;;;;5.50;5.10;;;21.00;40.40;;;;;;10358383;28;20237;-74
2022/05/08 12:50:41;;;;;;;5.57;5.27;;;20.90;40.10;;;;;;10361424;28;20253;-75
2022/05/08 12:55:46;;;;;;;5.73;5.30;;;20.80;40.30;;;;;;10360831;28;20230;-75
2022/05/08 13:00:49;;;;;;;5.50;5.20;;;20.70;40.30;;;;;;10355853;28;20223;-74
2022/05/08 13:05:52;;;;;;;5.20;4.90;;;20.60;40.90;;;;;;10354140;28;20288;-74
2022/05/08 13:10:57;;;;;;;5.00;4.70;;;20.60;40.80;;;;;;10365883;28;20455;-74
2022/05/08 13:16:00;;;;;;;5.20;4.80;;;20.70;40.40;;;;;;10377054;28;20313;-76
2022/05/08 13:21:05;;;;;;;5.60;5.20;;;20.70;40.60;;;;;;10363762;28;20885;-75
2022/05/08 13:26:10;;;;;;;5.23;4.93;;;20.80;40.10;;;;;;10361528;28;20234;-75
2022/05/08 13:31:13;;;;;;;4.77;4.40;;;20.90;39.70;;;;;;10368112;28;20228;-74
2022/05/08 13:36:17;;;;;;;4.67;4.37;;;20.90;39.90;;;;;;10366426;28;20229;-74
2022/05/08 13:41:21;;;;;;;4.70;4.40;;;21.00;40.00;;;;;;10368353;28;20227;-74
2022/05/08 13:46:24;;;;;;;4.53;4.23;;;21.10;39.60;;;;;;10363107;28;20317;-77
2022/05/08 13:51:28;;;;;;;5.00;4.60;;;21.10;39.60;;;;;;10352561;28;20222;-74
2022/05/08 13:56:34;;;;;;;4.70;4.40;;;21.20;39.00;;;;;;10362136;28;20227;-77
2022/05/08 14:01:37;;;;;;;3.90;3.60;;;21.20;38.70;;;;;;10368891;28;20261;-77
2022/05/08 14:06:40;;;;;;;4.43;4.13;;;21.30;38.70;;;;;;10357838;28;20729;-76
2022/05/08 14:11:45;;;;;;;4.70;3.77;;;21.30;38.20;;;;;;10366997;28;20653;-75
2022/05/08 14:16:48;;;;;;;3.73;3.37;;;21.30;37.60;;;;;;10366297;28;20234;-75
2022/05/08 14:21:51;;;;;;;3.83;3.57;;;21.30;38.60;;;;;;10366915;28;20229;-75
2022/05/08 14:26:56;;;;;;;4.43;4.20;;;21.40;38.40;;;;;;10363969;28;20270;-75
2022/05/08 14:37:20;;;;;;;4.30;4.00;;;21.50;37.80;;;;;;10367070;28;20221;-76
2022/05/08 14:42:25;;;;;;;3.87;3.57;;;21.50;37.80;;;;;;10367285;28;20318;-76
2022/05/08 14:47:29;;;;;;;3.80;3.60;;;21.50;37.50;;;;;;10366717;28;20236;-76
2022/05/08 14:52:32;;;;;;;3.90;3.60;;;21.50;37.80;;;;;;10366100;28;20231;-76
2022/05/08 14:57:37;;;;;;;3.83;3.53;;;21.50;37.80;;;;;;10334017;28;20235;-75
2022/05/08 15:02:41;;;;;;;3.90;3.70;;;21.40;37.10;;;;;;10366089;28;20230;-75
2022/05/08 15:07:44;;;;;;;4.40;4.10;;;21.40;37.20;;;;;;10366154;28;20230;-76
2022/05/08 15:12:50;;;;;;;4.03;3.73;;;21.40;37.30;;;;;;10366008;28;20769;-75
2022/05/08 15:23:14;;;;;;;4.37;4.07;;;21.40;37.30;;;;;;10365589;28;20603;-76
2022/05/08 15:28:19;;;;;;;6.17;5.77;;;21.40;37.30;;;;;;10365051;28;20230;-75
2022/05/08 15:33:22;;;;;;;4.73;4.30;;;21.40;36.60;;;;;;10365382;28;20237;-75
2022/05/08 15:38:25;;;;;;;4.23;3.97;;;21.50;37.20;;;;;;10351945;28;20233;-74
2022/05/08 15:43:31;;;;;;;3.77;3.50;;;21.50;36.70;;;;;;10349907;28;20238;-74
2022/05/08 15:48:35;;;;;;;3.87;3.60;;;21.60;36.30;;;;;;10352377;28;20311;-73
2022/05/08 15:53:38;;;;;;;3.93;3.70;;;21.60;36.80;;;;;;10353966;28;20233;-74
2022/05/08 15:58:43;;;;;;;3.60;3.37;;;21.60;36.20;;;;;;10351526;28;20218;-74
2022/05/08 16:03:46;;;;;;;4.17;3.87;;;21.60;35.60;;;;;;10353387;28;20667;-74
2022/05/08 16:08:49;;;;;;;4.83;4.43;;;21.60;36.00;;;;;;10352723;28;20233;-74
2022/05/08 16:24:35;;;;;;;4.00;3.70;;;21.70;35.80;;;;;;10352924;28;20242;-74
2022/05/08 16:29:39;;;;;;;6.10;5.60;;;21.70;35.50;;;;;;10354492;28;20227;-74
2022/05/08 16:34:42;;;;;;;4.40;3.90;;;21.70;35.10;;;;;;10351914;28;20234;-74
2022/05/08 16:39:46;;;;;;;3.57;3.37;;;21.70;35.40;;;;;;10355702;28;20218;-75
2022/05/08 16:44:52;;;;;;;3.97;3.67;;;21.70;35.60;;;;;;10358996;28;20726;-74
2022/05/08 16:49:55;;;;;;;5.13;4.70;;;21.70;34.80;;;;;;10358921;28;20226;-74
2022/05/08 16:54:58;;;;;;;5.50;5.10;;;21.70;35.20;;;;;;10360070;28;20233;-74
2022/05/08 17:00:05;;;;;;;5.80;5.30;;;21.70;35.20;;;;;;10360707;28;20225;-77
2022/05/08 17:05:09;;;;;;;5.67;5.07;;;21.70;34.80;;;;;;10360596;28;20210;-77
2022/05/08 17:10:12;;;;;;;5.13;4.83;;;21.70;35.10;;;;;;10361691;28;20241;-77
2022/05/08 17:15:17;;;;;;;5.33;4.83;;;21.70;35.50;;;;;;10357129;28;20238;-77
2022/05/08 17:20:20;;;;;;;4.10;3.80;;;21.70;35.30;;;;;;10359279;28;20579;-77
2022/05/08 17:25:23;;;;;;;4.47;4.17;;;21.70;36.00;;;;;;10355980;28;20240;-77
2022/05/08 17:30:28;;;;;;;4.33;3.93;;;21.80;35.90;;;;;;10356149;28;21024;-77
2022/05/08 17:35:31;;;;;;;4.10;3.87;;;21.80;36.00;;;;;;10363200;28;20234;-77
2022/05/08 17:40:35;;;;;;;4.10;3.80;;;21.70;36.10;;;;;;10359123;28;20772;-77
2022/05/08 17:45:43;;;;;;;4.00;3.70;;;21.70;36.10;;;;;;10357978;28;20226;-77
2022/05/08 17:50:47;;;;;;;3.70;3.40;;;21.70;36.10;;;;;;10357577;28;20316;-78
2022/05/08 17:55:50;;;;;;;3.50;3.20;;;21.70;36.20;;;;;;10357046;28;20234;-77
2022/05/08 18:00:55;;;;;;;3.93;3.73;;;21.60;36.10;;;;;;10356325;28;20230;-77
2022/05/08 18:05:58;;;;;;;6.07;5.57;;;21.60;36.00;;;;;;10356984;28;20766;-77
2022/05/08 18:11:01;;;;;;;5.13;4.73;;;21.60;36.60;;;;;;10359246;28;20590;-77
2022/05/08 18:16:06;;;;;;;4.07;3.73;;;21.50;36.70;;;;;;10358174;28;20707;-77
2022/05/08 18:21:12;;;;;;;4.43;4.13;;;21.50;36.60;;;;;;10358238;28;20280;-77
2022/05/08 18:26:15;;;;;;;4.70;4.30;;;21.40;37.10;;;;;;10356504;28;20230;-77
2022/05/08 18:31:20;;;;;;;3.87;3.67;;;21.30;37.20;;;;;;10354517;28;20253;-78
2022/05/08 18:36:23;;;;;;;3.93;3.63;;;21.30;37.80;;;;;;10355724;28;20257;-76
2022/05/08 18:41:26;;;;;;;4.30;4.00;;;21.30;37.40;;;;;;10353126;28;20253;-77
2022/05/08 18:46:31;;;;;;;4.87;4.40;;;21.20;37.60;;;;;;10354128;28;20591;-76
2022/05/08 18:51:34;;;;;;;4.53;4.17;;;21.10;37.50;;;;;;10353138;28;20245;-76
2022/05/08 18:56:38;;;;;;;4.83;4.43;;;21.10;37.50;;;;;;10348922;28;20553;-73
2022/05/08 19:01:43;;;;;;;4.77;4.47;;;21.00;37.40;;;;;;10347254;28;20226;-74
2022/05/08 19:06:46;;;;;;;4.90;4.60;;;20.90;37.30;;;;;;10351074;28;20238;-72
2022/05/08 19:11:49;;;;;;;5.07;4.67;;;20.80;37.20;;;;;;10352937;28;20229;-72
2022/05/08 19:16:54;;;;;;;4.53;4.23;;;20.80;37.20;;;;;;10349487;28;20230;-72
2022/05/08 19:21:57;;;;;;;4.20;3.90;;;20.70;37.10;;;;;;10351529;28;20234;-72
2022/05/08 19:27:01;;;;;;;5.03;4.60;;;20.70;37.20;;;;;;10350556;28;20627;-73
2022/05/08 19:42:48;;;;;;;5.03;4.60;;;20.50;37.20;;;;;;10349395;28;20238;-74
2022/05/08 19:47:53;;;;;;;5.17;4.87;;;20.50;37.40;;;;;;10349091;28;20226;-73
2022/05/08 19:52:56;;;;;;;5.23;4.80;;;20.40;37.30;;;;;;10343530;28;20241;-78
2022/05/08 19:57:59;;;;;;;4.90;4.50;;;20.30;37.20;;;;;;10349422;28;20798;-76
2022/05/08 20:03:04;;;;;;;4.30;4.00;;;20.30;37.30;;;;;;10350075;28;20234;-76
2022/05/08 20:08:08;;;;;;;4.70;4.40;;;20.20;37.30;;;;;;10346869;28;20226;-76
2022/05/08 20:13:11;;;;;;;4.70;4.40;;;20.10;37.30;;;;;;10347995;28;20234;-76
2022/05/08 20:18:16;;;;;;;4.63;4.33;;;20.00;37.40;;;;;;10353904;28;20228;-76
2022/05/08 20:23:20;;;;;;;6.33;5.83;;;19.90;37.50;;;;;;10354150;28;20788;-76
2022/05/08 20:28:23;;;;;;;5.90;5.40;;;19.80;37.40;;;;;;10357527;28;20232;-77
2022/05/08 20:33:28;;;;;;;5.50;5.00;;;19.80;37.50;;;;;;10354526;28;20232;-77
2022/05/08 20:38:31;;;;;;;5.23;4.73;;;19.70;37.60;;;;;;10361188;28;20238;-77
2022/05/08 20:43:35;;;;;;;6.27;5.77;;;19.60;37.50;;;;;;10361317;28;20749;-77
2022/05/08 20:48:39;;;;;;;5.67;5.17;;;19.50;37.50;;;;;;10358151;28;20238;-76
2022/05/08 20:53:42;;;;;;;4.80;4.40;;;19.50;37.80;;;;;;10359037;28;20238;-76
2022/05/08 20:58:45;;;;;;;4.40;4.10;;;19.40;37.70;;;;;;10361543;28;20230;-77
2022/05/08 21:03:51;;;;;;;4.77;4.47;;;19.30;37.60;;;;;;10359068;28;20222;-76
2022/05/08 21:08:54;;;;;;;4.30;4.00;;;19.30;37.80;;;;;;10360909;28;20226;-77
2022/05/08 21:13:58;;;;;;;4.33;4.10;;;19.20;37.70;;;;;;10362204;28;20786;-76
2022/05/08 21:19:03;;;;;;;5.20;4.80;;;19.10;37.60;;;;;;10358405;28;20231;-76
2022/05/08 21:24:06;;;;;;;5.23;4.83;;;19.10;37.70;;;;;;10356056;28;20242;-76
2022/05/08 21:29:12;;;;;;;4.90;4.40;;;18.90;37.70;;;;;;10361078;28;20759;-77
2022/05/08 21:34:18;;;;;;;5.23;4.83;;;18.90;37.90;;;;;;10354335;28;20227;-77
2022/05/08 21:39:21;;;;;;;4.77;4.43;;;18.80;37.70;;;;;;10355575;28;20820;-77
2022/05/08 21:44:24;;;;;;;4.33;4.03;;;18.80;37.60;;;;;;10360620;28;20234;-76
2022/05/08 21:49:29;;;;;;;4.70;4.30;;;18.70;37.70;;;;;;10359417;28;20230;-76
2022/05/08 21:54:32;;;;;;;5.00;4.50;;;18.60;37.80;;;;;;10359925;28;20230;-77
2022/05/08 21:59:35;;;;;;;4.50;4.17;;;18.50;37.80;;;;;;10360294;28;20604;-77
2022/05/08 22:04:41;;;;;;;4.47;4.10;;;18.40;37.90;;;;;;10361004;28;20241;-76
2022/05/08 22:09:44;;;;;;;4.67;4.27;;;18.40;38.10;;;;;;10358702;28;20226;-76
2022/05/08 22:14:47;;;;;;;5.43;5.03;;;18.30;37.80;;;;;;10358306;28;20230;-77
2022/05/08 22:19:52;;;;;;;5.50;5.10;;;18.20;37.90;;;;;;10357733;28;20737;-76
2022/05/08 22:24:55;;;;;;;6.00;5.43;;;18.10;38.20;;;;;;10355819;28;20308;-76
2022/05/08 22:29:58;;;;;;;6.33;5.83;;;18.00;38.00;;;;;;10356970;28;20226;-77
2022/05/08 22:35:04;;;;;;;6.70;6.10;;;17.90;38.20;;;;;;10357456;28;20252;-76
2022/05/08 22:40:08;;;;;;;7.27;6.57;;;17.80;38.30;;;;;;10356747;28;20225;-77
2022/05/08 22:45:12;;;;;;;6.63;5.93;;;17.80;38.40;;;;;;10358465;28;20237;-77
2022/05/08 22:50:16;;;;;;;8.07;7.10;;;17.70;38.30;;;;;;10358028;28;20230;-77
2022/05/08 22:55:19;;;;;;;7.90;7.20;;;17.70;38.60;;;;;;10355686;28;20226;-77
2022/05/08 23:00:23;;;;;;;7.10;6.50;;;17.60;38.50;;;;;;10358751;28;20234;-76
2022/05/08 23:05:27;;;;;;;5.50;5.10;;;17.60;38.60;;;;;;10356241;28;20250;-76
2022/05/08 23:10:31;;;;;;;7.20;6.60;;;17.50;38.70;;;;;;10356879;28;20222;-76
2022/05/08 23:15:36;;;;;;;6.77;6.27;;;17.50;39.40;;;;;;10356954;28;20317;-76
2022/05/08 23:20:42;;;;;;;6.60;6.00;;;17.50;38.90;;;;;;10355032;28;20233;-76
2022/05/08 23:25:49;;;;;;;6.33;5.73;;;17.40;38.90;;;;;;10355519;28;20237;-76
2022/05/08 23:30:56;;;;;;;6.37;5.77;;;17.40;39.00;;;;;;10356397;28;20233;-76
2022/05/08 23:36:07;;;;;;;7.20;6.60;;;17.40;39.10;;;;;;10355351;28;20227;-77
2022/05/08 23:41:12;;;;;;;6.17;5.67;;;17.30;39.40;;;;;;10355380;28;20222;-76
2022/05/08 23:46:16;;;;;;;6.47;5.87;;;17.30;39.00;;;;;;10355061;28;20223;-76
2022/05/08 23:51:26;;;;;;;5.53;5.13;;;17.30;39.10;;;;;;10361258;28;20222;-76
2022/05/08 23:56:30;;;;;;;5.93;5.43;;;17.30;38.90;;;;;;10363598;28;20249;-76
